Missouri River (Missouri), Kansas City (06893000)

StateMissouriLatestUnknown (71200 cfs)
RiverMissouri RiverRatingObservedEstimated
Updated2020-07-13 14:30 (36 minutes ago)Flood - The river is flooding. Obstacles can be treacherous or deadly. The river should be avoided at this stage for casual trips and definitely for the inexperienced. Trips should be attempted only with protective gear and equipment.Flood(none)(none)
Discharge71200 cfs (median: 63100 cfs)High - The river is high and potentially dangerous, especially for the young and / or inexperienced. Normal stream obstacles are sometimes difficult to navigate. Extended distances can be attempted, but canoe travel may not be advisable.High(none)(none)
Height14.47 feetGood - Conditions are ideal for a canoe or kayak. Boats typically will drag on fewer than one-quarter of riffles, if at all, and portages are unnecessary or rare. Normal float lengths can be attempted without a problem.Good(none)(none)
TrendRising (rising over 24 hours)Low - River is low but can still be floated. Some riffles are okay but most come with significant dragging and might need a portage. Float lengths should be reduced to accommodate low flow, dragging, and portages.Low(none)(none)
USGSExternal icon USGS Site (External icon Google Maps)Poor - River is too low to float comfortably. Most or all riffles will drag or must be portaged and some obstacles (such as slick shelf rock) cause undue problems. Avoid the river at this stage for casual paddling trips.Poor(none)(none)

Trending Data

Plot Image

Trips for Missouri River (Missouri), Kansas City (06893000)

DateStartEndDistanceConditionDischargeHeightFishingDetails

A total of 0 rows are displayed.

Condition Descriptions

Fishing Conditions

Fish Species

Notes

Classic Trip List

The classic River Trips application is still available for use. It is updated with the new system using a data retrofit. It is no longer maintained. The original River Trips application is no longer updated (as of 1 Dec 2016) but can be checked for errors or for the condition of the data before it was converted to the new system.

Gauge Data Table

ObservationHeightDischargeMaximum
Discharge
Minimum
Discharge
Mean
Discharge
P05P10P20P25P50
(Median)
P75P80P90P95
2020-07-13 14:30 14.47 71200 232000 (2011) 34800 (2002) 74100 38000 39800 42000 42900 63100 87900 91700 134000 163000
2020-07-13 13:30 14.44 71000 232000 (2011) 34800 (2002) 74100 38000 39800 42000 42900 63100 87900 91700 134000 163000
2020-07-13 12:30 14.45 71100 232000 (2011) 34800 (2002) 74100 38000 39800 42000 42900 63100 87900 91700 134000 163000
2020-07-13 11:30 14.46 71100 232000 (2011) 34800 (2002) 74100 38000 39800 42000 42900 63100 87900 91700 134000 163000
2020-07-13 10:30 14.43 70900 232000 (2011) 34800 (2002) 74100 38000 39800 42000 42900 63100 87900 91700 134000 163000
2020-07-13 09:30 14.42 70900 232000 (2011) 34800 (2002) 74100 38000 39800 42000 42900 63100 87900 91700 134000 163000
2020-07-13 08:30 14.40 70700 232000 (2011) 34800 (2002) 74100 38000 39800 42000 42900 63100 87900 91700 134000 163000
2020-07-13 07:30 14.43 70900 232000 (2011) 34800 (2002) 74100 38000 39800 42000 42900 63100 87900 91700 134000 163000
2020-07-13 06:30 14.41 70800 232000 (2011) 34800 (2002) 74100 38000 39800 42000 42900 63100 87900 91700 134000 163000
2020-07-13 05:30 14.42 70900 232000 (2011) 34800 (2002) 74100 38000 39800 42000 42900 63100 87900 91700 134000 163000
2020-07-13 04:30 14.46 71100 232000 (2011) 34800 (2002) 74100 38000 39800 42000 42900 63100 87900 91700 134000 163000
2020-07-13 03:30 14.47 71200 232000 (2011) 34800 (2002) 74100 38000 39800 42000 42900 63100 87900 91700 134000 163000
2020-07-13 02:30 14.44 71000 232000 (2011) 34800 (2002) 74100 38000 39800 42000 42900 63100 87900 91700 134000 163000
2020-07-13 01:30 14.46 71100 232000 (2011) 34800 (2002) 74100 38000 39800 42000 42900 63100 87900 91700 134000 163000
2020-07-13 00:30 14.43 70900 232000 (2011) 34800 (2002) 74100 38000 39800 42000 42900 63100 87900 91700 134000 163000
2020-07-12 23:30 14.41 70800 248000 (1993) 34400 (2002) 75200 38300 40200 42500 43000 60200 91600 101000 139000 181000
2020-07-12 22:30 14.40 70700 248000 (1993) 34400 (2002) 75200 38300 40200 42500 43000 60200 91600 101000 139000 181000
2020-07-12 21:30 14.34 70400 248000 (1993) 34400 (2002) 75200 38300 40200 42500 43000 60200 91600 101000 139000 181000
2020-07-12 20:30 14.32 70200 248000 (1993) 34400 (2002) 75200 38300 40200 42500 43000 60200 91600 101000 139000 181000
2020-07-12 19:30 14.26 69800 248000 (1993) 34400 (2002) 75200 38300 40200 42500 43000 60200 91600 101000 139000 181000
2020-07-12 18:30 14.21 69500 248000 (1993) 34400 (2002) 75200 38300 40200 42500 43000 60200 91600 101000 139000 181000
2020-07-12 17:30 14.18 69300 248000 (1993) 34400 (2002) 75200 38300 40200 42500 43000 60200 91600 101000 139000 181000
2020-07-12 16:30 14.17 69200 248000 (1993) 34400 (2002) 75200 38300 40200 42500 43000 60200 91600 101000 139000 181000
2020-07-12 15:30 14.14 69100 248000 (1993) 34400 (2002) 75200 38300 40200 42500 43000 60200 91600 101000 139000 181000
2020-07-12 14:30 14.13 69000 248000 (1993) 34400 (2002) 75200 38300 40200 42500 43000 60200 91600 101000 139000 181000
2020-07-12 13:30 14.13 69000 248000 (1993) 34400 (2002) 75200 38300 40200 42500 43000 60200 91600 101000 139000 181000
2020-07-12 12:30 14.14 69100 248000 (1993) 34400 (2002) 75200 38300 40200 42500 43000 60200 91600 101000 139000 181000
2020-07-12 11:30 14.11 68900 248000 (1993) 34400 (2002) 75200 38300 40200 42500 43000 60200 91600 101000 139000 181000
2020-07-12 10:30 14.14 69100 248000 (1993) 34400 (2002) 75200 38300 40200 42500 43000 60200 91600 101000 139000 181000
2020-07-12 09:30 14.15 69100 248000 (1993) 34400 (2002) 75200 38300 40200 42500 43000 60200 91600 101000 139000 181000
2020-07-12 08:30 14.16 69200 248000 (1993) 34400 (2002) 75200 38300 40200 42500 43000 60200 91600 101000 139000 181000
2020-07-12 07:30 14.13 69000 248000 (1993) 34400 (2002) 75200 38300 40200 42500 43000 60200 91600 101000 139000 181000
2020-07-12 06:30 14.14 69100 248000 (1993) 34400 (2002) 75200 38300 40200 42500 43000 60200 91600 101000 139000 181000
2020-07-12 05:30 14.12 68900 248000 (1993) 34400 (2002) 75200 38300 40200 42500 43000 60200 91600 101000 139000 181000
2020-07-12 04:30 14.18 69300 248000 (1993) 34400 (2002) 75200 38300 40200 42500 43000 60200 91600 101000 139000 181000
2020-07-12 03:30 14.16 69200 248000 (1993) 34400 (2002) 75200 38300 40200 42500 43000 60200 91600 101000 139000 181000
2020-07-12 02:30 14.19 69400 248000 (1993) 34400 (2002) 75200 38300 40200 42500 43000 60200 91600 101000 139000 181000
2020-07-12 01:30 14.20 69400 248000 (1993) 34400 (2002) 75200 38300 40200 42500 43000 60200 91600 101000 139000 181000
2020-07-12 00:30 14.26 69800 248000 (1993) 34400 (2002) 75200 38300 40200 42500 43000 60200 91600 101000 139000 181000
2020-07-11 23:30 14.30 70100 288000 (1993) 34900 (2006) 75900 38700 40300 42200 44400 60400 91800 103000 131000 161000
2020-07-11 22:30 14.34 70400 288000 (1993) 34900 (2006) 75900 38700 40300 42200 44400 60400 91800 103000 131000 161000
2020-07-11 21:30 14.34 70400 288000 (1993) 34900 (2006) 75900 38700 40300 42200 44400 60400 91800 103000 131000 161000
2020-07-11 20:30 14.30 70100 288000 (1993) 34900 (2006) 75900 38700 40300 42200 44400 60400 91800 103000 131000 161000
2020-07-11 19:30 14.31 70200 288000 (1993) 34900 (2006) 75900 38700 40300 42200 44400 60400 91800 103000 131000 161000
2020-07-11 18:30 14.37 70600 288000 (1993) 34900 (2006) 75900 38700 40300 42200 44400 60400 91800 103000 131000 161000
2020-07-11 17:30 14.39 70700 288000 (1993) 34900 (2006) 75900 38700 40300 42200 44400 60400 91800 103000 131000 161000
2020-07-11 16:30 14.38 70600 288000 (1993) 34900 (2006) 75900 38700 40300 42200 44400 60400 91800 103000 131000 161000
2020-07-11 15:30 14.45 71100 288000 (1993) 34900 (2006) 75900 38700 40300 42200 44400 60400 91800 103000 131000 161000
2020-07-11 14:30 14.49 71300 288000 (1993) 34900 (2006) 75900 38700 40300 42200 44400 60400 91800 103000 131000 161000
2020-07-11 12:30 14.59 72000 288000 (1993) 34900 (2006) 75900 38700 40300 42200 44400 60400 91800 103000 131000 161000
2020-07-11 11:30 14.61 72100 288000 (1993) 34900 (2006) 75900 38700 40300 42200 44400 60400 91800 103000 131000 161000
2020-07-11 10:30 14.64 72300 288000 (1993) 34900 (2006) 75900 38700 40300 42200 44400 60400 91800 103000 131000 161000
2020-07-11 09:30 14.63 72300 288000 (1993) 34900 (2006) 75900 38700 40300 42200 44400 60400 91800 103000 131000 161000
2020-07-11 08:30 14.70 72700 288000 (1993) 34900 (2006) 75900 38700 40300 42200 44400 60400 91800 103000 131000 161000
2020-07-11 07:30 14.68 72600 288000 (1993) 34900 (2006) 75900 38700 40300 42200 44400 60400 91800 103000 131000 161000
2020-07-11 06:30 14.74 73000 288000 (1993) 34900 (2006) 75900 38700 40300 42200 44400 60400 91800 103000 131000 161000
2020-07-11 05:30 14.71 72800 288000 (1993) 34900 (2006) 75900 38700 40300 42200 44400 60400 91800 103000 131000 161000
2020-07-11 04:30 14.73 72900 288000 (1993) 34900 (2006) 75900 38700 40300 42200 44400 60400 91800 103000 131000 161000
2020-07-11 03:30 14.75 73100 288000 (1993) 34900 (2006) 75900 38700 40300 42200 44400 60400 91800 103000 131000 161000
2020-07-11 02:30 14.78 73300 288000 (1993) 34900 (2006) 75900 38700 40300 42200 44400 60400 91800 103000 131000 161000
2020-07-11 01:30 14.80 73400 288000 (1993) 34900 (2006) 75900 38700 40300 42200 44400 60400 91800 103000 131000 161000
2020-07-11 00:30 14.78 73300 288000 (1993) 34900 (2006) 75900 38700 40300 42200 44400 60400 91800 103000 131000 161000
2020-07-10 23:30 14.84 73700 275000 (1993) 34900 (2006) 75200 38400 40400 43300 44200 61900 96200 101000 119000 168000
2020-07-10 22:30 14.80 73400 275000 (1993) 34900 (2006) 75200 38400 40400 43300 44200 61900 96200 101000 119000 168000
2020-07-10 21:30 14.88 73900 275000 (1993) 34900 (2006) 75200 38400 40400 43300 44200 61900 96200 101000 119000 168000
2020-07-10 20:30 14.87 73900 275000 (1993) 34900 (2006) 75200 38400 40400 43300 44200 61900 96200 101000 119000 168000
2020-07-10 19:30 14.85 73700 275000 (1993) 34900 (2006) 75200 38400 40400 43300 44200 61900 96200 101000 119000 168000
2020-07-10 18:30 14.88 73900 275000 (1993) 34900 (2006) 75200 38400 40400 43300 44200 61900 96200 101000 119000 168000
2020-07-10 17:30 14.88 73900 275000 (1993) 34900 (2006) 75200 38400 40400 43300 44200 61900 96200 101000 119000 168000
2020-07-10 16:30 14.92 74200 275000 (1993) 34900 (2006) 75200 38400 40400 43300 44200 61900 96200 101000 119000 168000
2020-07-10 15:30 14.86 73800 275000 (1993) 34900 (2006) 75200 38400 40400 43300 44200 61900 96200 101000 119000 168000
2020-07-10 14:30 14.91 74100 275000 (1993) 34900 (2006) 75200 38400 40400 43300 44200 61900 96200 101000 119000 168000
2020-07-10 13:30 14.90 74100 275000 (1993) 34900 (2006) 75200 38400 40400 43300 44200 61900 96200 101000 119000 168000
2020-07-10 12:30 14.90 74100 275000 (1993) 34900 (2006) 75200 38400 40400 43300 44200 61900 96200 101000 119000 168000
2020-07-10 11:30 14.92 74200 275000 (1993) 34900 (2006) 75200 38400 40400 43300 44200 61900 96200 101000 119000 168000
2020-07-10 10:30 14.93 74300 275000 (1993) 34900 (2006) 75200 38400 40400 43300 44200 61900 96200 101000 119000 168000
2020-07-10 09:30 14.93 74300 275000 (1993) 34900 (2006) 75200 38400 40400 43300 44200 61900 96200 101000 119000 168000
2020-07-10 08:30 14.92 74200 275000 (1993) 34900 (2006) 75200 38400 40400 43300 44200 61900 96200 101000 119000 168000
2020-07-10 07:30 14.91 74100 275000 (1993) 34900 (2006) 75200 38400 40400 43300 44200 61900 96200 101000 119000 168000
2020-07-10 06:30 14.89 74000 275000 (1993) 34900 (2006) 75200 38400 40400 43300 44200 61900 96200 101000 119000 168000
2020-07-10 05:30 14.92 74200 275000 (1993) 34900 (2006) 75200 38400 40400 43300 44200 61900 96200 101000 119000 168000
2020-07-10 04:30 14.95 74400 275000 (1993) 34900 (2006) 75200 38400 40400 43300 44200 61900 96200 101000 119000 168000
2020-07-10 03:30 14.98 74600 275000 (1993) 34900 (2006) 75200 38400 40400 43300 44200 61900 96200 101000 119000 168000
2020-07-10 02:30 15.01 74800 275000 (1993) 34900 (2006) 75200 38400 40400 43300 44200 61900 96200 101000 119000 168000
2020-07-10 01:30 15.03 75000 275000 (1993) 34900 (2006) 75200 38400 40400 43300 44200 61900 96200 101000 119000 168000
2020-07-10 00:30 15.03 75000 275000 (1993) 34900 (2006) 75200 38400 40400 43300 44200 61900 96200 101000 119000 168000
2020-07-09 23:30 15.03 75000 242000 (2011) 34100 (2006) 74600 38100 39900 45200 45900 60100 93400 101000 124000 173000
2020-07-09 22:30 15.05 75100 242000 (2011) 34100 (2006) 74600 38100 39900 45200 45900 60100 93400 101000 124000 173000
2020-07-09 21:30 15.08 75300 242000 (2011) 34100 (2006) 74600 38100 39900 45200 45900 60100 93400 101000 124000 173000
2020-07-09 20:30 15.08 75300 242000 (2011) 34100 (2006) 74600 38100 39900 45200 45900 60100 93400 101000 124000 173000
2020-07-09 19:30 15.10 75400 242000 (2011) 34100 (2006) 74600 38100 39900 45200 45900 60100 93400 101000 124000 173000
2020-07-09 18:30 15.13 75600 242000 (2011) 34100 (2006) 74600 38100 39900 45200 45900 60100 93400 101000 124000 173000
2020-07-09 17:30 15.12 75600 242000 (2011) 34100 (2006) 74600 38100 39900 45200 45900 60100 93400 101000 124000 173000
2020-07-09 16:30 15.13 75600 242000 (2011) 34100 (2006) 74600 38100 39900 45200 45900 60100 93400 101000 124000 173000
2020-07-09 15:30 15.19 76000 242000 (2011) 34100 (2006) 74600 38100 39900 45200 45900 60100 93400 101000 124000 173000
2020-07-09 14:30 15.19 76000 242000 (2011) 34100 (2006) 74600 38100 39900 45200 45900 60100 93400 101000 124000 173000
2020-07-09 13:30 15.23 76300 242000 (2011) 34100 (2006) 74600 38100 39900 45200 45900 60100 93400 101000 124000 173000
2020-07-09 12:30 15.24 76400 242000 (2011) 34100 (2006) 74600 38100 39900 45200 45900 60100 93400 101000 124000 173000
2020-07-09 11:30 15.22 76200 242000 (2011) 34100 (2006) 74600 38100 39900 45200 45900 60100 93400 101000 124000 173000
2020-07-09 10:30 15.22 76200 242000 (2011) 34100 (2006) 74600 38100 39900 45200 45900 60100 93400 101000 124000 173000
2020-07-09 09:30 15.26 76500 242000 (2011) 34100 (2006) 74600 38100 39900 45200 45900 60100 93400 101000 124000 173000
2020-07-09 08:30 15.26 76500 242000 (2011) 34100 (2006) 74600 38100 39900 45200 45900 60100 93400 101000 124000 173000
2020-07-09 07:30 15.31 76900 242000 (2011) 34100 (2006) 74600 38100 39900 45200 45900 60100 93400 101000 124000 173000
2020-07-09 06:30 15.33 77000 242000 (2011) 34100 (2006) 74600 38100 39900 45200 45900 60100 93400 101000 124000 173000
2020-07-09 05:30 15.30 76800 242000 (2011) 34100 (2006) 74600 38100 39900 45200 45900 60100 93400 101000 124000 173000
2020-07-09 04:30 15.33 77000 242000 (2011) 34100 (2006) 74600 38100 39900 45200 45900 60100 93400 101000 124000 173000
2020-07-09 03:30 15.35 77100 242000 (2011) 34100 (2006) 74600 38100 39900 45200 45900 60100 93400 101000 124000 173000
2020-07-09 02:30 15.36 77200 242000 (2011) 34100 (2006) 74600 38100 39900 45200 45900 60100 93400 101000 124000 173000
2020-07-09 01:30 15.39 77400 242000 (2011) 34100 (2006) 74600 38100 39900 45200 45900 60100 93400 101000 124000 173000
2020-07-09 00:30 15.37 77300 242000 (2011) 34100 (2006) 74600 38100 39900 45200 45900 60100 93400 101000 124000 173000
2020-07-08 23:30 15.39 77400 243000 (2011) 34100 (2006) 76000 38100 39700 45600 46500 59600 95200 104000 142000 176000
2020-07-08 22:30 15.42 77600 243000 (2011) 34100 (2006) 76000 38100 39700 45600 46500 59600 95200 104000 142000 176000
2020-07-08 21:30 15.40 77500 243000 (2011) 34100 (2006) 76000 38100 39700 45600 46500 59600 95200 104000 142000 176000
2020-07-08 20:30 15.43 77700 243000 (2011) 34100 (2006) 76000 38100 39700 45600 46500 59600 95200 104000 142000 176000
2020-07-08 19:30 15.47 78000 243000 (2011) 34100 (2006) 76000 38100 39700 45600 46500 59600 95200 104000 142000 176000
2020-07-08 18:30 15.46 77900 243000 (2011) 34100 (2006) 76000 38100 39700 45600 46500 59600 95200 104000 142000 176000
2020-07-08 17:30 15.52 78300 243000 (2011) 34100 (2006) 76000 38100 39700 45600 46500 59600 95200 104000 142000 176000
2020-07-08 16:30 15.53 78400 243000 (2011) 34100 (2006) 76000 38100 39700 45600 46500 59600 95200 104000 142000 176000
2020-07-08 15:30 15.54 75000 243000 (2011) 34100 (2006) 76000 38100 39700 45600 46500 59600 95200 104000 142000 176000
2020-07-08 14:30 15.56 75100 243000 (2011) 34100 (2006) 76000 38100 39700 45600 46500 59600 95200 104000 142000 176000
2020-07-08 13:30 15.56 75100 243000 (2011) 34100 (2006) 76000 38100 39700 45600 46500 59600 95200 104000 142000 176000
2020-07-08 12:30 15.58 75200 243000 (2011) 34100 (2006) 76000 38100 39700 45600 46500 59600 95200 104000 142000 176000
2020-07-08 11:30 15.62 75500 243000 (2011) 34100 (2006) 76000 38100 39700 45600 46500 59600 95200 104000 142000 176000
2020-07-08 10:30 15.64 75600 243000 (2011) 34100 (2006) 76000 38100 39700 45600 46500 59600 95200 104000 142000 176000
2020-07-08 09:30 15.62 75500 243000 (2011) 34100 (2006) 76000 38100 39700 45600 46500 59600 95200 104000 142000 176000
2020-07-08 08:30 15.68 75900 243000 (2011) 34100 (2006) 76000 38100 39700 45600 46500 59600 95200 104000 142000 176000
2020-07-08 07:30 15.68 75900 243000 (2011) 34100 (2006) 76000 38100 39700 45600 46500 59600 95200 104000 142000 176000
2020-07-08 06:30 15.69 76000 243000 (2011) 34100 (2006) 76000 38100 39700 45600 46500 59600 95200 104000 142000 176000
2020-07-08 05:30 15.68 75900 243000 (2011) 34100 (2006) 76000 38100 39700 45600 46500 59600 95200 104000 142000 176000
2020-07-08 04:30 15.69 76000 243000 (2011) 34100 (2006) 76000 38100 39700 45600 46500 59600 95200 104000 142000 176000
2020-07-08 03:30 15.71 76100 243000 (2011) 34100 (2006) 76000 38100 39700 45600 46500 59600 95200 104000 142000 176000
2020-07-08 02:30 15.69 76000 243000 (2011) 34100 (2006) 76000 38100 39700 45600 46500 59600 95200 104000 142000 176000
2020-07-08 01:30 15.72 76200 243000 (2011) 34100 (2006) 76000 38100 39700 45600 46500 59600 95200 104000 142000 176000
2020-07-08 00:30 15.72 76200 243000 (2011) 34100 (2006) 76000 38100 39700 45600 46500 59600 95200 104000 142000 176000
2020-07-07 23:30 15.71 76100 242000 (2011) 34600 (2006) 77900 37500 40900 45900 47700 62200 91700 105000 153000 178000
2020-07-07 22:30 15.69 76000 242000 (2011) 34600 (2006) 77900 37500 40900 45900 47700 62200 91700 105000 153000 178000
2020-07-07 21:30 15.67 75800 242000 (2011) 34600 (2006) 77900 37500 40900 45900 47700 62200 91700 105000 153000 178000
2020-07-07 20:30 15.73 76200 242000 (2011) 34600 (2006) 77900 37500 40900 45900 47700 62200 91700 105000 153000 178000
2020-07-07 19:30 15.72 76200 242000 (2011) 34600 (2006) 77900 37500 40900 45900 47700 62200 91700 105000 153000 178000
2020-07-07 18:30 15.70 76000 242000 (2011) 34600 (2006) 77900 37500 40900 45900 47700 62200 91700 105000 153000 178000
2020-07-07 17:30 15.69 76000 242000 (2011) 34600 (2006) 77900 37500 40900 45900 47700 62200 91700 105000 153000 178000
2020-07-07 16:30 15.66 75800 242000 (2011) 34600 (2006) 77900 37500 40900 45900 47700 62200 91700 105000 153000 178000
2020-07-07 15:30 15.63 75600 242000 (2011) 34600 (2006) 77900 37500 40900 45900 47700 62200 91700 105000 153000 178000
2020-07-07 14:30 15.64 75600 242000 (2011) 34600 (2006) 77900 37500 40900 45900 47700 62200 91700 105000 153000 178000
2020-07-07 13:30 15.61 75400 242000 (2011) 34600 (2006) 77900 37500 40900 45900 47700 62200 91700 105000 153000 178000
2020-07-07 12:30 15.59 75300 242000 (2011) 34600 (2006) 77900 37500 40900 45900 47700 62200 91700 105000 153000 178000
2020-07-07 11:30 15.58 75200 242000 (2011) 34600 (2006) 77900 37500 40900 45900 47700 62200 91700 105000 153000 178000
2020-07-07 10:30 15.58 75200 242000 (2011) 34600 (2006) 77900 37500 40900 45900 47700 62200 91700 105000 153000 178000
2020-07-07 09:30 15.59 75300 242000 (2011) 34600 (2006) 77900 37500 40900 45900 47700 62200 91700 105000 153000 178000
2020-07-07 08:30 15.58 75200 242000 (2011) 34600 (2006) 77900 37500 40900 45900 47700 62200 91700 105000 153000 178000
2020-07-07 07:30 15.61 75400 242000 (2011) 34600 (2006) 77900 37500 40900 45900 47700 62200 91700 105000 153000 178000
2020-07-07 06:30 15.65 75700 242000 (2011) 34600 (2006) 77900 37500 40900 45900 47700 62200 91700 105000 153000 178000
2020-07-07 05:30 15.65 75700 242000 (2011) 34600 (2006) 77900 37500 40900 45900 47700 62200 91700 105000 153000 178000
2020-07-07 04:30 15.73 76200 242000 (2011) 34600 (2006) 77900 37500 40900 45900 47700 62200 91700 105000 153000 178000
2020-07-07 03:30 15.69 76000 242000 (2011) 34600 (2006) 77900 37500 40900 45900 47700 62200 91700 105000 153000 178000
2020-07-07 02:30 15.71 76100 242000 (2011) 34600 (2006) 77900 37500 40900 45900 47700 62200 91700 105000 153000 178000
2020-07-07 01:30 15.72 76200 242000 (2011) 34600 (2006) 77900 37500 40900 45900 47700 62200 91700 105000 153000 178000
2020-07-07 00:30 15.80 76700 242000 (2011) 34600 (2006) 77900 37500 40900 45900 47700 62200 91700 105000 153000 178000
2020-07-06 23:30 15.83 76900 238000 (2011) 35300 (2006) 77200 38300 41700 45200 48500 65700 89800 96900 132000 178000
2020-07-06 22:30 15.86 77100 238000 (2011) 35300 (2006) 77200 38300 41700 45200 48500 65700 89800 96900 132000 178000
2020-07-06 21:30 15.84 77000 238000 (2011) 35300 (2006) 77200 38300 41700 45200 48500 65700 89800 96900 132000 178000
2020-07-06 20:30 15.88 77300 238000 (2011) 35300 (2006) 77200 38300 41700 45200 48500 65700 89800 96900 132000 178000
2020-07-06 19:30 15.90 77400 238000 (2011) 35300 (2006) 77200 38300 41700 45200 48500 65700 89800 96900 132000 178000
2020-07-06 18:30 15.91 77500 238000 (2011) 35300 (2006) 77200 38300 41700 45200 48500 65700 89800 96900 132000 178000
2020-07-06 17:30 15.99 78000 238000 (2011) 35300 (2006) 77200 38300 41700 45200 48500 65700 89800 96900 132000 178000
2020-07-06 16:30 16.01 78200 238000 (2011) 35300 (2006) 77200 38300 41700 45200 48500 65700 89800 96900 132000 178000
2020-07-06 15:30 16.01 78200 238000 (2011) 35300 (2006) 77200 38300 41700 45200 48500 65700 89800 96900 132000 178000
2020-07-06 14:30 16.07 78600 238000 (2011) 35300 (2006) 77200 38300 41700 45200 48500 65700 89800 96900 132000 178000
2020-07-06 13:30 16.10 78800 238000 (2011) 35300 (2006) 77200 38300 41700 45200 48500 65700 89800 96900 132000 178000
2020-07-06 12:30 16.05 78500 238000 (2011) 35300 (2006) 77200 38300 41700 45200 48500 65700 89800 96900 132000 178000
2020-07-06 11:30 16.10 78800 238000 (2011) 35300 (2006) 77200 38300 41700 45200 48500 65700 89800 96900 132000 178000
2020-07-06 10:30 16.15 79100 238000 (2011) 35300 (2006) 77200 38300 41700 45200 48500 65700 89800 96900 132000 178000
2020-07-06 09:30 16.20 79500 238000 (2011) 35300 (2006) 77200 38300 41700 45200 48500 65700 89800 96900 132000 178000
2020-07-06 08:30 16.22 79600 238000 (2011) 35300 (2006) 77200 38300 41700 45200 48500 65700 89800 96900 132000 178000
2020-07-06 07:30 16.25 79900 238000 (2011) 35300 (2006) 77200 38300 41700 45200 48500 65700 89800 96900 132000 178000
2020-07-06 06:30 16.26 79900 238000 (2011) 35300 (2006) 77200 38300 41700 45200 48500 65700 89800 96900 132000 178000
2020-07-06 05:30 16.30 80200 238000 (2011) 35300 (2006) 77200 38300 41700 45200 48500 65700 89800 96900 132000 178000
2020-07-06 04:30 16.32 80300 238000 (2011) 35300 (2006) 77200 38300 41700 45200 48500 65700 89800 96900 132000 178000
2020-07-06 03:30 16.36 80600 238000 (2011) 35300 (2006) 77200 38300 41700 45200 48500 65700 89800 96900 132000 178000
2020-07-06 02:30 16.41 81000 238000 (2011) 35300 (2006) 77200 38300 41700 45200 48500 65700 89800 96900 132000 178000
2020-07-06 01:30 16.45 81300 238000 (2011) 35300 (2006) 77200 38300 41700 45200 48500 65700 89800 96900 132000 178000
2020-07-06 00:30 16.47 81400 238000 (2011) 35300 (2006) 77200 38300 41700 45200 48500 65700 89800 96900 132000 178000

A total of 182 rows are displayed for years 1958 through 2019.